Time;durP1;ratioP1;P1;durP2;ratioP2;P2;SDS_P1;SDS_P2;PMS_P1;PMS_P2;Temp;Humidity;BMP_temperature;BMP_pressure;BME280_temperature;BME280_humidity;BME280_pressure;Samples;Min_cycle;Max_cycle;Signal;HPM_P1;HPM_P2
2022/05/03 00:00:11;;;;;;;17.40;12.63;;;12.90;85.50;;;;;;5049814;28;20446;-77
2022/05/03 00:02:58;;;;;;;20.83;13.40;;;12.90;85.50;;;;;;5051005;28;20417;-76
2022/05/03 00:05:39;;;;;;;16.70;12.10;;;12.80;85.50;;;;;;5050625;28;20429;-76
2022/05/03 00:08:53;;;;;;;22.10;13.20;;;12.80;85.60;;;;;;5049959;28;20423;-75
2022/05/03 00:11:22;;;;;;;19.20;12.13;;;12.70;85.70;;;;;;5044960;28;20522;-75
2022/05/03 00:14:03;;;;;;;17.60;12.07;;;12.70;85.70;;;;;;5050196;28;20451;-75
2022/05/03 00:16:30;;;;;;;20.43;11.70;;;12.70;85.90;;;;;;5049400;28;20419;-74
2022/05/03 00:18:56;;;;;;;19.13;12.30;;;12.70;86.30;;;;;;5050205;28;20435;-75
2022/05/03 00:21:23;;;;;;;17.93;11.07;;;12.70;86.50;;;;;;5055154;28;20494;-75
2022/05/03 00:23:49;;;;;;;17.40;12.07;;;12.80;86.30;;;;;;5057269;28;20461;-74
2022/05/03 00:26:16;;;;;;;18.17;11.67;;;12.80;86.20;;;;;;5057002;28;20514;-74
2022/05/03 00:28:42;;;;;;;17.47;11.83;;;12.80;86.30;;;;;;5056530;28;20433;-75
2022/05/03 00:31:10;;;;;;;16.17;11.53;;;12.80;86.30;;;;;;5052757;28;20861;-74
2022/05/03 00:33:36;;;;;;;17.00;11.70;;;12.80;86.20;;;;;;5047914;28;20554;-75
2022/05/03 00:36:02;;;;;;;17.67;12.60;;;12.70;86.30;;;;;;5048246;28;20442;-76
2022/05/03 00:38:34;;;;;;;19.00;11.80;;;12.70;86.20;;;;;;5049919;28;20431;-75
2022/05/03 00:41:03;;;;;;;20.30;11.67;;;12.70;86.30;;;;;;5045913;28;20476;-75
2022/05/03 00:44:55;;;;;;;18.03;11.67;;;12.80;86.20;;;;;;5051444;28;20448;-75
2022/05/03 00:46:57;;;;;;;16.60;10.87;;;12.80;86.50;;;;;;5053868;28;20437;-75
2022/05/03 00:49:53;;;;;;;16.43;12.17;;;12.70;86.80;;;;;;5054107;28;20443;-76
2022/05/03 00:52:33;;;;;;;17.83;12.00;;;12.60;87.00;;;;;;5033447;28;20435;-75
2022/05/03 00:55:17;;;;;;;18.70;11.60;;;12.60;87.30;;;;;;5048092;28;20836;-76
2022/05/03 00:58:08;;;;;;;16.40;10.90;;;12.60;87.40;;;;;;5049671;28;20419;-75
2022/05/03 01:00:38;;;;;;;17.87;12.20;;;12.60;86.80;;;;;;5049639;28;20806;-76
2022/05/03 01:03:11;;;;;;;17.53;12.77;;;12.60;86.00;;;;;;5051263;28;20415;-75
2022/05/03 01:05:49;;;;;;;18.03;12.17;;;12.40;86.20;;;;;;5050890;28;20498;-75
2022/05/03 01:08:36;;;;;;;17.90;12.53;;;12.20;86.80;;;;;;5047941;28;20410;-75
2022/05/03 01:11:39;;;;;;;21.43;13.83;;;12.10;87.60;;;;;;5047135;28;20497;-75
2022/05/03 01:14:23;;;;;;;18.20;11.70;;;12.00;88.00;;;;;;5050792;28;20462;-74
2022/05/03 01:16:58;;;;;;;17.50;11.90;;;11.90;88.70;;;;;;5049755;28;20522;-76
2022/05/03 01:19:34;;;;;;;24.00;13.53;;;11.80;89.00;;;;;;5052501;28;20525;-76
2022/05/03 01:22:34;;;;;;;18.03;12.70;;;11.80;89.30;;;;;;5053124;28;20901;-77
2022/05/03 01:25:12;;;;;;;24.23;14.27;;;11.70;89.50;;;;;;5010649;28;20428;-75
2022/05/03 01:27:46;;;;;;;18.87;13.30;;;11.60;89.90;;;;;;5015358;28;20416;-75
2022/05/03 01:30:12;;;;;;;19.00;12.60;;;11.60;89.90;;;;;;5048465;28;20993;-76
2022/05/03 01:32:43;;;;;;;15.63;11.43;;;11.60;90.10;;;;;;5044706;28;20423;-76
2022/05/03 01:35:12;;;;;;;18.53;12.10;;;11.50;90.10;;;;;;5036669;28;20216;-76
2022/05/03 01:37:44;;;;;;;17.57;12.43;;;11.50;90.20;;;;;;5032523;28;21092;-75
2022/05/03 01:40:38;;;;;;;17.97;11.90;;;11.50;90.30;;;;;;5045993;28;20435;-76
2022/05/03 01:43:13;;;;;;;20.87;12.63;;;11.50;90.40;;;;;;5024759;28;20930;-75
2022/05/03 01:46:03;;;;;;;20.10;13.37;;;11.50;90.40;;;;;;5034364;28;20434;-77
2022/05/03 01:51:36;;;;;;;23.23;14.17;;;11.50;90.60;;;;;;5031047;28;20430;-76
2022/05/03 01:54:49;;;;;;;16.43;12.63;;;11.50;90.70;;;;;;5032617;28;20479;-75
2022/05/03 01:57:33;;;;;;;20.47;13.67;;;11.50;90.60;;;;;;5004978;28;20879;-75
2022/05/03 02:00:09;;;;;;;20.47;13.50;;;11.40;90.70;;;;;;5029640;28;20444;-74
2022/05/03 02:03:06;;;;;;;19.57;13.00;;;11.40;90.80;;;;;;5048733;28;20411;-76
2022/05/03 02:06:00;;;;;;;20.43;14.27;;;11.30;90.70;;;;;;5048024;28;20449;-75
2022/05/03 02:08:41;;;;;;;21.53;13.07;;;11.30;90.80;;;;;;5050086;28;20517;-75
2022/05/03 02:12:02;;;;;;;23.60;13.93;;;11.30;90.80;;;;;;5046311;28;20427;-74
2022/05/03 02:14:46;;;;;;;23.77;14.63;;;11.20;90.80;;;;;;5048193;28;20509;-75
2022/05/03 02:17:50;;;;;;;21.37;13.50;;;11.10;90.70;;;;;;5052199;28;20510;-76
2022/05/03 02:20:22;;;;;;;20.37;13.13;;;11.10;90.80;;;;;;5046655;28;20825;-75
2022/05/03 02:22:48;;;;;;;25.63;15.20;;;11.00;90.90;;;;;;5051347;28;20423;-75
2022/05/03 02:25:32;;;;;;;19.30;13.80;;;11.00;91.10;;;;;;5051100;28;20427;-75
2022/05/03 02:28:04;;;;;;;19.63;12.30;;;10.90;91.20;;;;;;5041630;28;20435;-76
2022/05/03 02:30:33;;;;;;;24.93;14.33;;;10.90;91.30;;;;;;5049253;28;20534;-76
2022/05/03 02:33:17;;;;;;;23.73;15.73;;;10.90;91.40;;;;;;5051120;28;20910;-76
2022/05/03 02:35:49;;;;;;;20.40;13.70;;;10.90;91.30;;;;;;5050655;28;20422;-76
2022/05/03 02:38:20;;;;;;;25.87;16.10;;;10.70;91.10;;;;;;5045485;28;20422;-76
2022/05/03 02:40:51;;;;;;;27.13;15.80;;;10.60;91.60;;;;;;5050440;28;20435;-76
2022/05/03 02:43:20;;;;;;;21.17;14.33;;;10.40;91.90;;;;;;5046201;28;20481;-77
2022/05/03 02:46:23;;;;;;;24.90;16.00;;;10.40;92.10;;;;;;5050499;28;20906;-76
2022/05/03 02:49:24;;;;;;;28.63;16.10;;;10.50;92.40;;;;;;5041969;28;20423;-76
2022/05/03 02:52:04;;;;;;;25.10;16.00;;;10.40;92.40;;;;;;5047588;28;20414;-76
2022/05/03 02:54:39;;;;;;;26.70;14.87;;;10.40;92.40;;;;;;5050286;28;20474;-75
2022/05/03 02:57:21;;;;;;;28.13;17.17;;;10.30;92.50;;;;;;5050237;28;20411;-76
2022/05/03 03:03:20;;;;;;;30.70;18.00;;;10.30;92.80;;;;;;5049227;28;20422;-76
2022/05/03 03:05:55;;;;;;;28.03;16.30;;;10.30;93.00;;;;;;5049553;28;20759;-76
2022/05/03 03:08:23;;;;;;;26.30;17.17;;;10.30;93.10;;;;;;5051244;28;20411;-76
2022/05/03 03:11:01;;;;;;;30.00;18.60;;;10.30;93.10;;;;;;5051869;28;20474;-76
2022/05/03 03:14:08;;;;;;;28.73;19.20;;;10.30;93.20;;;;;;5055701;28;20427;-77
2022/05/03 03:16:43;;;;;;;25.60;16.17;;;10.30;93.20;;;;;;5057234;28;20414;-76
2022/05/03 03:19:47;;;;;;;26.93;16.40;;;10.30;93.20;;;;;;5050250;28;20870;-75
2022/05/03 03:22:15;;;;;;;25.90;16.57;;;10.30;93.10;;;;;;5038381;28;20430;-75
2022/05/03 03:24:41;;;;;;;22.70;15.23;;;10.30;92.90;;;;;;5049711;28;20431;-75
2022/05/03 03:27:10;;;;;;;24.37;15.97;;;10.30;93.10;;;;;;5050063;28;21095;-74
2022/05/03 03:29:38;;;;;;;25.50;15.67;;;10.30;93.00;;;;;;5048457;28;20462;-74
2022/05/03 03:32:06;;;;;;;34.20;17.93;;;10.30;93.10;;;;;;5050619;28;20808;-74
2022/05/03 03:34:32;;;;;;;28.20;18.10;;;10.40;93.10;;;;;;5056361;28;20833;-76
2022/05/03 03:37:02;;;;;;;33.43;18.97;;;10.40;93.10;;;;;;5052576;28;20423;-75
2022/05/03 03:39:30;;;;;;;33.77;20.00;;;10.50;93.10;;;;;;5055761;28;20376;-74
2022/05/03 03:42:00;;;;;;;36.47;20.63;;;10.40;93.20;;;;;;5055164;28;20856;-74
2022/05/03 03:44:26;;;;;;;35.20;21.60;;;10.40;93.30;;;;;;5051485;28;20438;-75
2022/05/03 03:46:52;;;;;;;33.07;21.40;;;10.40;93.50;;;;;;5050014;28;20430;-75
2022/05/03 03:49:18;;;;;;;31.23;19.20;;;10.50;93.70;;;;;;5050687;28;20504;-73
2022/05/03 03:51:45;;;;;;;31.90;17.83;;;10.50;93.50;;;;;;5047834;28;20513;-73
2022/05/03 03:54:12;;;;;;;25.30;16.33;;;10.50;93.50;;;;;;5049563;28;20223;-72
2022/05/03 03:56:38;;;;;;;29.47;16.27;;;10.50;93.10;;;;;;5049435;28;20415;-73
2022/05/03 03:59:05;;;;;;;25.27;16.00;;;10.50;92.80;;;;;;5048216;28;20552;-73
2022/05/03 04:01:31;;;;;;;29.20;17.13;;;10.40;92.50;;;;;;5047551;28;20466;-73
2022/05/03 04:03:58;;;;;;;31.60;17.27;;;10.40;92.30;;;;;;5048817;28;21014;-73
2022/05/03 04:06:24;;;;;;;23.03;15.33;;;10.40;92.40;;;;;;5048791;28;21103;-73
2022/05/03 04:08:51;;;;;;;30.67;17.17;;;10.40;92.40;;;;;;5049179;28;20426;-73
2022/05/03 04:11:17;;;;;;;28.70;18.27;;;10.40;92.30;;;;;;5049016;28;20430;-74
2022/05/03 04:13:44;;;;;;;29.70;17.30;;;10.30;92.30;;;;;;5048781;28;20470;-72
2022/05/03 04:16:10;;;;;;;28.83;17.40;;;10.20;92.50;;;;;;5048415;28;20992;-74
2022/05/03 04:18:45;;;;;;;30.07;17.10;;;10.20;92.80;;;;;;5047989;28;20421;-73
2022/05/03 04:21:18;;;;;;;25.23;15.90;;;10.20;92.80;;;;;;5048477;28;20418;-73
2022/05/03 04:23:45;;;;;;;26.70;16.30;;;10.10;92.50;;;;;;5049093;28;20426;-74
2022/05/03 04:26:11;;;;;;;28.67;17.30;;;10.00;92.40;;;;;;5048322;28;21158;-74
2022/05/03 04:28:38;;;;;;;29.83;17.37;;;9.90;92.60;;;;;;5049208;28;20425;-73
2022/05/03 04:31:04;;;;;;;30.83;18.83;;;9.90;92.40;;;;;;5048797;28;20426;-73
2022/05/03 04:33:30;;;;;;;27.60;17.03;;;9.80;92.60;;;;;;5049069;28;20429;-75
2022/05/03 04:35:56;;;;;;;30.30;16.03;;;9.80;92.80;;;;;;5047468;28;20565;-75
2022/05/03 04:38:22;;;;;;;30.13;17.50;;;9.80;92.80;;;;;;5046815;28;20502;-73
2022/05/03 04:40:48;;;;;;;27.33;17.10;;;9.90;92.80;;;;;;5048739;28;20801;-73
2022/05/03 04:43:13;;;;;;;36.30;21.80;;;9.90;93.20;;;;;;5048138;28;20176;-72
2022/05/03 04:45:39;;;;;;;36.80;20.70;;;10.00;93.40;;;;;;5048386;28;20188;-75
2022/05/03 04:48:06;;;;;;;44.53;21.43;;;10.00;93.50;;;;;;5048919;28;20187;-75
2022/05/03 04:50:31;;;;;;;36.93;19.93;;;10.00;93.50;;;;;;5048598;28;20209;-73
2022/05/03 04:52:57;;;;;;;34.10;20.13;;;10.00;93.60;;;;;;5049664;28;20516;-73
2022/05/03 04:55:23;;;;;;;35.27;20.50;;;10.20;93.50;;;;;;5054168;28;20243;-74
2022/05/03 04:57:49;;;;;;;35.30;20.13;;;10.30;93.30;;;;;;5053169;28;20234;-74
2022/05/03 05:00:16;;;;;;;35.80;20.67;;;10.40;93.10;;;;;;5052703;28;20526;-74
2022/05/03 05:02:42;;;;;;;34.37;19.40;;;10.60;93.00;;;;;;5052893;28;20416;-74
2022/05/03 05:05:08;;;;;;;36.00;20.77;;;10.70;92.80;;;;;;5052860;28;20484;-74
2022/05/03 05:07:33;;;;;;;36.50;21.60;;;10.80;92.70;;;;;;5052799;28;20669;-73
2022/05/03 05:12:44;;;;;;;34.53;20.40;;;11.00;92.60;;;;;;5053258;28;20219;-74
2022/05/03 05:15:10;;;;;;;34.03;20.50;;;11.10;92.60;;;;;;5052549;28;20918;-73
2022/05/03 05:17:36;;;;;;;34.13;21.87;;;11.10;92.50;;;;;;5052970;28;20264;-73
2022/05/03 05:20:02;;;;;;;33.83;22.67;;;11.20;92.40;;;;;;5052532;28;20470;-75
2022/05/03 05:22:28;;;;;;;38.37;20.80;;;11.30;92.20;;;;;;5054428;28;20203;-74
2022/05/03 05:24:54;;;;;;;40.37;20.97;;;11.40;92.20;;;;;;5055946;28;20898;-75
2022/05/03 05:27:19;;;;;;;35.17;20.33;;;11.40;92.10;;;;;;5058342;28;20216;-74
2022/05/03 05:29:45;;;;;;;35.47;20.77;;;11.50;91.80;;;;;;5057747;28;20287;-74
2022/05/03 05:32:11;;;;;;;32.80;18.50;;;11.60;91.40;;;;;;5056946;28;20618;-73
2022/05/03 05:34:36;;;;;;;28.37;18.43;;;11.60;91.20;;;;;;5055571;28;20216;-74
2022/05/03 05:37:02;;;;;;;35.73;20.20;;;11.70;90.80;;;;;;5050790;28;20575;-74
2022/05/03 05:39:28;;;;;;;32.13;19.40;;;11.70;90.00;;;;;;5056230;28;20208;-74
2022/05/03 05:41:59;;;;;;;34.53;20.53;;;11.70;89.60;;;;;;5056073;28;20419;-73
2022/05/03 05:44:28;;;;;;;33.70;18.57;;;11.80;89.20;;;;;;5055531;28;20716;-74
2022/05/03 05:46:54;;;;;;;31.13;19.73;;;11.90;88.40;;;;;;5051781;28;20427;-74
2022/05/03 05:49:19;;;;;;;36.97;20.17;;;11.90;88.40;;;;;;5052864;28;20438;-73
2022/05/03 05:51:45;;;;;;;36.73;20.87;;;11.90;88.40;;;;;;5052689;28;20259;-74
2022/05/03 05:54:11;;;;;;;30.73;19.60;;;12.00;88.00;;;;;;5052188;28;20474;-74
2022/05/03 05:56:40;;;;;;;35.20;20.73;;;12.00;87.80;;;;;;5050271;28;20184;-74
2022/05/03 05:59:05;;;;;;;30.63;19.47;;;12.10;87.70;;;;;;5051993;28;20501;-75
2022/05/03 06:01:39;;;;;;;34.50;21.37;;;12.20;87.60;;;;;;5051564;28;20431;-75
2022/05/03 06:04:06;;;;;;;42.27;21.53;;;12.30;87.30;;;;;;5051392;28;20191;-74
2022/05/03 06:06:36;;;;;;;33.93;19.97;;;12.40;87.30;;;;;;5051494;28;20441;-74
2022/05/03 06:09:05;;;;;;;33.20;20.60;;;12.50;87.10;;;;;;5051702;28;20550;-73
2022/05/03 06:11:31;;;;;;;36.90;21.00;;;12.60;86.90;;;;;;5051410;28;20831;-74
2022/05/03 06:13:57;;;;;;;35.57;20.23;;;12.80;86.80;;;;;;5051469;28;20479;-74
2022/05/03 06:16:22;;;;;;;36.17;21.57;;;13.00;86.50;;;;;;5051293;28;20492;-73
2022/05/03 06:18:48;;;;;;;30.63;18.40;;;13.20;85.90;;;;;;5051202;28;20544;-75
2022/05/03 06:21:14;;;;;;;31.20;19.20;;;13.30;85.20;;;;;;5049407;28;20287;-75
2022/05/03 06:23:40;;;;;;;32.83;20.33;;;13.50;84.60;;;;;;5051050;28;20259;-74
2022/05/03 06:26:06;;;;;;;36.70;22.63;;;13.70;84.10;;;;;;5050279;28;20204;-75
2022/05/03 06:28:32;;;;;;;37.10;21.20;;;13.90;83.30;;;;;;5050592;28;20861;-73
2022/05/03 06:30:58;;;;;;;34.40;20.80;;;13.90;83.30;;;;;;5050844;28;20513;-72
2022/05/03 06:33:23;;;;;;;33.47;19.53;;;13.90;83.10;;;;;;5050987;28;20910;-73
2022/05/03 06:35:49;;;;;;;33.10;21.00;;;14.00;83.40;;;;;;5050413;28;20185;-75
2022/05/03 06:38:15;;;;;;;38.67;23.10;;;14.10;82.70;;;;;;5045480;28;20185;-74
2022/05/03 06:40:41;;;;;;;32.70;20.40;;;14.10;83.00;;;;;;5050724;28;20209;-74
2022/05/03 06:43:08;;;;;;;33.20;20.40;;;14.20;82.20;;;;;;5051017;28;20655;-73
2022/05/03 06:45:33;;;;;;;32.90;21.20;;;14.30;82.40;;;;;;5052098;28;20431;-75
2022/05/03 06:48:00;;;;;;;32.50;20.13;;;14.40;81.70;;;;;;5054965;28;20425;-73
2022/05/03 06:50:27;;;;;;;29.30;18.13;;;14.50;81.50;;;;;;5054259;28;20204;-74
2022/05/03 06:52:52;;;;;;;36.03;20.70;;;14.60;80.90;;;;;;5055004;28;20960;-74
2022/05/03 06:55:18;;;;;;;31.80;19.50;;;14.70;80.30;;;;;;5054310;28;20555;-74
2022/05/03 06:57:44;;;;;;;27.83;18.80;;;14.80;80.30;;;;;;5053304;28;20254;-74
2022/05/03 07:00:11;;;;;;;33.37;19.40;;;14.80;80.20;;;;;;5050949;28;20289;-73
2022/05/03 07:02:37;;;;;;;31.83;17.93;;;14.90;80.00;;;;;;5050539;28;20422;-74
2022/05/03 07:05:04;;;;;;;28.77;18.20;;;15.10;80.00;;;;;;5049732;28;20506;-73
2022/05/03 07:07:30;;;;;;;27.93;19.10;;;15.20;79.50;;;;;;5050261;28;20438;-74
2022/05/03 07:09:58;;;;;;;29.57;17.80;;;15.20;78.70;;;;;;5049911;28;20439;-73
2022/05/03 07:12:24;;;;;;;29.43;18.03;;;15.30;78.70;;;;;;5050117;28;20494;-75
2022/05/03 07:14:50;;;;;;;32.13;19.20;;;15.40;78.30;;;;;;5049152;28;20479;-73
2022/05/03 07:22:47;;;;;;;28.83;17.93;;;15.60;77.00;;;;;;5057426;28;20449;-74
2022/05/03 07:25:16;;;;;;;24.57;16.50;;;15.60;76.40;;;;;;5066872;28;20422;-74
2022/05/03 07:27:46;;;;;;;29.43;16.40;;;15.50;76.40;;;;;;5068860;28;20172;-74
2022/05/03 07:30:16;;;;;;;25.20;17.00;;;15.60;76.80;;;;;;5077740;28;20447;-73
2022/05/03 07:32:45;;;;;;;28.30;18.00;;;15.70;76.10;;;;;;5054773;28;20433;-73
2022/05/03 07:35:12;;;;;;;27.90;16.10;;;15.70;75.90;;;;;;5050387;28;20521;-73
2022/05/03 07:37:39;;;;;;;27.60;16.33;;;15.70;74.90;;;;;;5051248;28;20423;-73
2022/05/03 07:40:06;;;;;;;24.27;15.60;;;15.60;75.20;;;;;;5050402;28;20474;-74
2022/05/03 07:42:33;;;;;;;20.40;13.73;;;15.60;75.50;;;;;;5049660;28;20428;-73
2022/05/03 07:44:58;;;;;;;21.37;13.00;;;15.60;74.80;;;;;;5049831;28;20496;-72
2022/05/03 07:47:24;;;;;;;22.53;13.73;;;15.60;74.80;;;;;;5050679;28;20419;-75
2022/05/03 07:49:50;;;;;;;23.47;14.13;;;15.70;74.50;;;;;;5049443;28;20271;-73
2022/05/03 07:52:16;;;;;;;20.23;13.93;;;15.90;74.20;;;;;;5049701;28;20442;-74
2022/05/03 07:54:44;;;;;;;20.33;12.30;;;16.10;73.60;;;;;;5052820;28;20208;-73
2022/05/03 07:57:13;;;;;;;15.00;10.67;;;16.30;72.60;;;;;;5055675;28;20188;-73
2022/05/03 07:59:39;;;;;;;15.20;11.10;;;16.40;71.30;;;;;;5056414;28;20468;-73
2022/05/03 08:02:05;;;;;;;16.57;10.20;;;16.50;71.30;;;;;;5056691;28;20912;-72
2022/05/03 08:04:31;;;;;;;17.63;10.63;;;16.70;71.10;;;;;;5055310;28;20508;-72
2022/05/03 08:06:57;;;;;;;15.23;10.50;;;16.70;71.00;;;;;;5051623;28;20475;-74
2022/05/03 08:09:23;;;;;;;17.80;10.30;;;16.70;71.00;;;;;;5048850;28;20208;-74
2022/05/03 08:11:48;;;;;;;19.03;11.40;;;16.80;70.80;;;;;;5050105;28;20341;-73
2022/05/03 08:14:14;;;;;;;15.67;10.27;;;16.80;70.70;;;;;;5050463;28;20203;-73
2022/05/03 08:16:40;;;;;;;17.13;10.03;;;16.90;70.20;;;;;;5049567;28;20551;-74
2022/05/03 08:19:05;;;;;;;13.77;9.40;;;17.00;69.50;;;;;;5050343;28;20575;-74
2022/05/03 08:21:32;;;;;;;14.03;9.63;;;17.20;69.10;;;;;;5050195;28;20227;-74
2022/05/03 08:23:59;;;;;;;13.37;9.23;;;17.20;68.30;;;;;;5049465;28;20672;-73
2022/05/03 08:26:25;;;;;;;15.13;10.60;;;17.30;68.30;;;;;;5051382;28;20485;-73
2022/05/03 08:28:51;;;;;;;14.73;8.90;;;17.50;67.30;;;;;;5054648;28;20411;-72
2022/05/03 08:31:16;;;;;;;15.00;10.10;;;17.50;66.90;;;;;;5054545;28;20438;-73
2022/05/03 08:33:44;;;;;;;15.47;9.07;;;17.50;66.40;;;;;;5053782;28;20211;-73
2022/05/03 08:36:10;;;;;;;16.43;10.70;;;17.50;66.40;;;;;;5054309;28;20423;-74
2022/05/03 08:44:04;;;;;;;13.67;9.60;;;17.70;66.40;;;;;;5053297;28;20492;-75
2022/05/03 08:46:31;;;;;;;16.40;9.90;;;17.80;65.80;;;;;;5053052;28;20427;-75
2022/05/03 08:49:02;;;;;;;12.63;9.53;;;17.90;65.30;;;;;;5053463;28;20713;-73
2022/05/03 08:51:30;;;;;;;15.97;9.70;;;17.90;65.00;;;;;;5054319;28;20909;-74
2022/05/03 08:53:57;;;;;;;16.00;8.77;;;18.10;64.10;;;;;;5054476;28;20467;-74
2022/05/03 08:56:23;;;;;;;12.63;8.93;;;18.10;63.10;;;;;;5053906;28;20975;-75
2022/05/03 08:58:49;;;;;;;12.17;8.80;;;18.20;62.60;;;;;;5054657;28;20520;-74
2022/05/03 09:01:15;;;;;;;13.40;9.33;;;18.20;62.60;;;;;;5054153;28;20433;-74
2022/05/03 09:03:41;;;;;;;13.80;10.00;;;18.20;62.80;;;;;;5054354;28;20909;-74
2022/05/03 09:06:08;;;;;;;13.47;9.87;;;18.40;62.20;;;;;;5053522;28;20181;-75
2022/05/03 09:08:35;;;;;;;17.53;10.73;;;18.60;62.00;;;;;;5053789;28;20412;-74
2022/05/03 09:11:15;;;;;;;12.73;8.80;;;18.80;61.60;;;;;;5054036;28;20911;-74
2022/05/03 09:13:42;;;;;;;11.20;7.90;;;19.00;60.70;;;;;;5053439;28;20782;-73
2022/05/03 09:16:15;;;;;;;11.67;7.60;;;19.00;58.90;;;;;;5053638;28;20986;-74
2022/05/03 09:18:42;;;;;;;12.93;7.90;;;19.00;59.10;;;;;;5054205;28;20918;-73
2022/05/03 09:24:10;;;;;;;12.27;9.30;;;19.10;58.70;;;;;;5047458;28;20436;-74
2022/05/03 09:26:37;;;;;;;12.50;7.67;;;19.40;58.10;;;;;;5054185;28;20424;-73
2022/05/03 09:29:08;;;;;;;9.50;7.50;;;19.50;57.40;;;;;;5052223;28;20940;-75
2022/05/03 09:31:42;;;;;;;9.03;7.43;;;19.40;57.00;;;;;;5051120;28;20472;-73
2022/05/03 09:34:19;;;;;;;13.27;7.57;;;19.30;57.30;;;;;;5052421;28;20566;-74
2022/05/03 09:36:47;;;;;;;9.07;7.23;;;19.30;57.00;;;;;;5047217;28;20404;-74
2022/05/03 09:39:25;;;;;;;11.07;6.87;;;19.30;57.70;;;;;;5050796;28;20445;-75
2022/05/03 09:42:09;;;;;;;13.17;8.17;;;19.50;57.70;;;;;;5051747;28;21002;-75
2022/05/03 09:44:57;;;;;;;12.07;7.80;;;19.50;57.00;;;;;;5051825;28;20937;-73
2022/05/03 09:47:28;;;;;;;11.37;7.60;;;19.40;58.00;;;;;;5052029;28;20591;-74
2022/05/03 09:49:54;;;;;;;12.40;7.53;;;19.30;57.80;;;;;;5051452;28;20907;-73
2022/05/03 09:52:31;;;;;;;9.87;6.90;;;19.40;58.40;;;;;;5052357;28;20817;-74
2022/05/03 09:55:08;;;;;;;12.63;7.20;;;19.60;57.40;;;;;;5051866;28;20567;-75
2022/05/03 09:57:39;;;;;;;9.80;7.70;;;19.50;57.00;;;;;;5052098;28;20433;-72
2022/05/03 10:00:07;;;;;;;8.93;6.43;;;19.50;56.50;;;;;;5051828;28;20961;-74
2022/05/03 10:02:34;;;;;;;10.93;6.53;;;19.50;56.20;;;;;;5051708;28;20431;-74
2022/05/03 10:05:00;;;;;;;8.53;6.57;;;19.50;56.10;;;;;;5052005;28;20925;-74
2022/05/03 10:07:27;;;;;;;10.00;7.10;;;19.60;56.10;;;;;;5051279;28;20427;-74
2022/05/03 10:09:53;;;;;;;10.10;6.50;;;19.60;55.30;;;;;;5051198;28;20443;-76
2022/05/03 10:12:19;;;;;;;8.80;6.70;;;19.60;55.00;;;;;;5050800;28;20455;-75
2022/05/03 10:14:47;;;;;;;8.87;7.27;;;19.60;55.40;;;;;;5051668;28;20548;-74
2022/05/03 10:20:39;;;;;;;9.40;6.70;;;19.60;55.00;;;;;;5059578;28;20446;-73
2022/05/03 10:23:21;;;;;;;13.70;7.57;;;19.50;55.70;;;;;;5045265;28;20468;-74
2022/05/03 10:25:46;;;;;;;9.00;6.50;;;19.80;55.00;;;;;;5049324;28;20491;-74
2022/05/03 10:28:12;;;;;;;8.87;5.97;;;19.70;53.70;;;;;;5052719;28;20435;-75
2022/05/03 10:30:39;;;;;;;6.80;6.10;;;20.00;54.40;;;;;;5049155;28;20290;-73
2022/05/03 10:33:19;;;;;;;10.90;7.50;;;20.20;55.00;;;;;;5054876;28;20484;-73
2022/05/03 10:35:49;;;;;;;8.73;7.10;;;20.30;54.90;;;;;;5035993;28;21064;-73
2022/05/03 10:38:15;;;;;;;11.10;7.23;;;20.40;54.80;;;;;;5048178;28;20426;-73
2022/05/03 10:40:44;;;;;;;10.53;7.60;;;20.40;54.80;;;;;;5049051;28;20481;-74
2022/05/03 10:43:11;;;;;;;10.93;6.70;;;20.50;54.90;;;;;;5055387;28;20426;-75
2022/05/03 10:45:58;;;;;;;9.00;6.50;;;20.70;54.80;;;;;;5048169;28;20536;-73
2022/05/03 10:48:25;;;;;;;8.60;6.50;;;20.90;54.10;;;;;;5060619;28;20512;-75
2022/05/03 10:50:54;;;;;;;7.53;5.60;;;21.30;53.70;;;;;;5048840;28;20445;-72
2022/05/03 10:53:23;;;;;;;10.10;6.60;;;21.50;52.10;;;;;;5049552;28;21096;-74
2022/05/03 10:56:05;;;;;;;7.20;6.27;;;21.50;52.00;;;;;;5050961;28;20481;-76
2022/05/03 10:58:34;;;;;;;8.20;6.17;;;21.80;51.30;;;;;;5050564;28;20420;-73
2022/05/03 11:01:04;;;;;;;9.30;6.93;;;21.70;50.20;;;;;;5044826;28;20452;-73
2022/05/03 11:03:34;;;;;;;11.13;7.60;;;21.40;51.00;;;;;;5051494;28;20420;-74
2022/05/03 11:06:18;;;;;;;11.20;6.70;;;21.80;50.50;;;;;;5050603;28;20482;-75
2022/05/03 11:09:08;;;;;;;8.67;6.57;;;22.00;49.40;;;;;;5050454;28;20815;-73
2022/05/03 11:11:40;;;;;;;8.73;6.10;;;21.80;48.90;;;;;;5050065;28;20425;-75
2022/05/03 11:14:15;;;;;;;6.77;5.20;;;21.70;49.50;;;;;;5046252;28;20494;-74
2022/05/03 11:16:42;;;;;;;8.63;5.97;;;21.90;48.70;;;;;;5050959;28;20814;-74
2022/05/03 11:19:19;;;;;;;8.47;6.20;;;21.80;49.40;;;;;;5052182;28;20442;-72
2022/05/03 11:21:47;;;;;;;10.23;6.20;;;21.80;50.20;;;;;;5051370;28;20422;-73
2022/05/03 11:24:32;;;;;;;7.40;6.10;;;22.10;49.10;;;;;;5052941;28;20433;-74
2022/05/03 11:27:02;;;;;;;8.60;6.33;;;22.20;48.70;;;;;;5043126;28;20414;-74
2022/05/03 11:29:49;;;;;;;10.70;7.07;;;22.10;48.20;;;;;;5051422;28;20818;-76
2022/05/03 11:32:25;;;;;;;9.50;6.10;;;22.00;48.30;;;;;;5046276;28;20935;-74
2022/05/03 11:34:58;;;;;;;8.67;6.90;;;21.70;49.00;;;;;;5051834;28;20454;-74
2022/05/03 11:37:24;;;;;;;9.63;6.80;;;21.70;48.60;;;;;;5047728;28;20434;-74
2022/05/03 11:39:52;;;;;;;7.10;5.97;;;21.60;49.10;;;;;;5051734;28;20470;-74
2022/05/03 11:42:21;;;;;;;9.40;6.70;;;21.50;49.80;;;;;;5051608;28;20432;-74
2022/05/03 11:44:47;;;;;;;10.60;7.10;;;21.90;49.10;;;;;;5050952;28;20426;-75
2022/05/03 11:47:15;;;;;;;10.00;6.70;;;22.10;49.00;;;;;;5050293;28;21351;-75
2022/05/03 11:49:43;;;;;;;12.07;7.43;;;22.20;48.20;;;;;;5048582;28;20219;-74
2022/05/03 11:57:40;;;;;;;7.30;5.97;;;23.00;46.20;;;;;;5049181;28;20957;-73
2022/05/03 12:00:10;;;;;;;7.33;5.73;;;23.40;45.70;;;;;;5049200;28;20440;-74
2022/05/03 12:02:46;;;;;;;7.00;6.10;;;24.00;44.30;;;;;;5046685;28;20437;-75
2022/05/03 12:05:16;;;;;;;8.33;5.83;;;24.10;44.10;;;;;;5050159;28;20453;-74
2022/05/03 12:07:50;;;;;;;9.33;6.63;;;24.20;41.50;;;;;;5050253;28;20791;-76
2022/05/03 12:10:23;;;;;;;9.40;6.37;;;24.00;42.00;;;;;;5050239;28;20454;-72
2022/05/03 12:13:08;;;;;;;8.50;7.20;;;23.30;44.10;;;;;;5050952;28;20420;-72
2022/05/03 12:15:42;;;;;;;7.00;5.93;;;23.10;43.40;;;;;;5048043;28;20460;-73
2022/05/03 12:18:28;;;;;;;7.60;6.60;;;23.50;43.70;;;;;;5051002;28;20417;-72
2022/05/03 12:20:59;;;;;;;9.13;6.70;;;23.70;44.30;;;;;;5049895;28;20460;-74
2022/05/03 12:23:34;;;;;;;9.20;6.70;;;23.70;44.10;;;;;;5051155;28;20908;-73
2022/05/03 12:26:21;;;;;;;10.83;7.17;;;24.30;42.40;;;;;;5044572;28;20978;-75
2022/05/03 12:28:58;;;;;;;10.47;7.00;;;24.30;44.90;;;;;;5051961;28;20435;-73
2022/05/03 12:31:30;;;;;;;11.00;7.70;;;23.60;46.70;;;;;;5054519;28;20447;-74
2022/05/03 12:33:57;;;;;;;10.93;6.97;;;22.80;48.60;;;;;;5058860;28;20462;-74
2022/05/03 12:36:43;;;;;;;8.70;6.87;;;22.50;48.90;;;;;;5046229;28;20983;-74
2022/05/03 12:39:16;;;;;;;11.17;6.90;;;22.70;48.70;;;;;;5043235;28;20478;-75
2022/05/03 12:41:44;;;;;;;10.07;7.10;;;22.80;48.20;;;;;;5050392;28;20435;-72
2022/05/03 12:44:13;;;;;;;12.50;7.53;;;22.40;48.90;;;;;;5050270;28;20825;-75
2022/05/03 12:46:40;;;;;;;9.87;6.60;;;22.20;50.30;;;;;;5048802;28;20438;-74
2022/05/03 12:49:14;;;;;;;13.63;6.40;;;21.90;50.90;;;;;;5049028;28;20453;-75
2022/05/03 12:51:45;;;;;;;7.20;5.97;;;21.80;51.70;;;;;;5048622;28;20436;-73
2022/05/03 12:54:11;;;;;;;11.73;6.33;;;21.70;52.00;;;;;;5048614;28;20488;-76
2022/05/03 12:59:23;;;;;;;6.00;4.80;;;21.50;51.40;;;;;;5045141;28;20439;-74
2022/05/03 13:01:51;;;;;;;8.00;5.67;;;20.90;53.00;;;;;;5049493;28;20421;-75
2022/05/03 13:04:17;;;;;;;11.90;4.93;;;20.50;53.40;;;;;;5049155;28;20476;-75
2022/05/03 13:06:44;;;;;;;9.10;5.20;;;20.20;54.00;;;;;;5044956;28;21275;-74
2022/05/03 13:09:10;;;;;;;6.33;5.10;;;20.00;55.80;;;;;;5048054;28;20460;-75
2022/05/03 13:11:41;;;;;;;7.03;5.20;;;19.70;57.30;;;;;;5048798;28;20427;-73
2022/05/03 13:14:08;;;;;;;8.67;5.07;;;19.50;59.10;;;;;;5051360;28;21309;-75
2022/05/03 13:16:35;;;;;;;10.60;6.03;;;19.20;61.60;;;;;;5052272;28;20983;-76
2022/05/03 13:19:01;;;;;;;6.73;5.17;;;18.80;62.80;;;;;;5052256;28;20450;-72
2022/05/03 13:21:27;;;;;;;8.37;5.73;;;18.50;64.20;;;;;;5051803;28;21007;-73
2022/05/03 13:23:53;;;;;;;9.40;5.40;;;18.20;64.50;;;;;;5052180;28;20467;-76
2022/05/03 13:26:19;;;;;;;9.37;6.10;;;17.90;65.40;;;;;;5052859;28;20196;-74
2022/05/03 13:28:45;;;;;;;7.10;4.87;;;17.70;66.40;;;;;;5052029;28;20260;-76